sensor_id;sensor_type;location;lat;lon;timestamp;pressure;altitude;pressure_sealevel;temperature;humidity
25869;BME280;13688;53.154;18.136;2023-02-19T00:05:08;100438.41;;;2.00;93.33
25869;BME280;13688;53.154;18.136;2023-02-19T00:10:30;100447.14;;;2.03;92.83
25869;BME280;13688;53.154;18.136;2023-02-19T00:15:53;100450.61;;;2.05;92.17
25869;BME280;13688;53.154;18.136;2023-02-19T00:21:16;100447.88;;;2.06;91.44
25869;BME280;13688;53.154;18.136;2023-02-19T00:26:40;100441.80;;;2.04;90.73
25869;BME280;13688;53.154;18.136;2023-02-19T00:32:03;100449.79;;;2.03;90.25
25869;BME280;13688;53.154;18.136;2023-02-19T00:37:26;100449.01;;;2.00;89.98
25869;BME280;13688;53.154;18.136;2023-02-19T00:42:48;100455.33;;;1.98;90.00
25869;BME280;13688;53.154;18.136;2023-02-19T00:48:10;100472.95;;;1.99;90.20
25869;BME280;13688;53.154;18.136;2023-02-19T00:53:32;100460.47;;;2.01;90.38
25869;BME280;13688;53.154;18.136;2023-02-19T00:58:55;100449.95;;;1.99;90.45
25869;BME280;13688;53.154;18.136;2023-02-19T01:04:18;100455.98;;;2.03;90.49
25869;BME280;13688;53.154;18.136;2023-02-19T01:09:40;100440.08;;;2.03;90.42
25869;BME280;13688;53.154;18.136;2023-02-19T01:15:03;100446.08;;;2.07;90.31
25869;BME280;13688;53.154;18.136;2023-02-19T01:20:25;100444.29;;;2.07;90.16
25869;BME280;13688;53.154;18.136;2023-02-19T01:25:48;100443.51;;;2.05;90.01
25869;BME280;13688;53.154;18.136;2023-02-19T01:31:13;100427.72;;;2.02;89.88
25869;BME280;13688;53.154;18.136;2023-02-19T01:36:38;100431.97;;;2.06;89.67
25869;BME280;13688;53.154;18.136;2023-02-19T01:42:00;100433.76;;;2.06;89.40
25869;BME280;13688;53.154;18.136;2023-02-19T01:47:29;100429.94;;;2.11;89.01
25869;BME280;13688;53.154;18.136;2023-02-19T01:52:52;100436.95;;;2.12;88.51
25869;BME280;13688;53.154;18.136;2023-02-19T01:58:15;100443.16;;;2.13;88.14
25869;BME280;13688;53.154;18.136;2023-02-19T02:03:41;100451.16;;;2.11;87.98
25869;BME280;13688;53.154;18.136;2023-02-19T02:09:05;100444.91;;;2.12;87.94
25869;BME280;13688;53.154;18.136;2023-02-19T02:14:47;100434.46;;;2.09;87.98
25869;BME280;13688;53.154;18.136;2023-02-19T02:26:21;100422.42;;;2.02;88.50
25869;BME280;13688;53.154;18.136;2023-02-19T02:32:10;100414.77;;;1.96;88.84
25869;BME280;13688;53.154;18.136;2023-02-19T02:37:37;100417.70;;;1.90;89.26
25869;BME280;13688;53.154;18.136;2023-02-19T02:43:01;100400.43;;;1.81;89.57
25869;BME280;13688;53.154;18.136;2023-02-19T02:48:39;100391.19;;;1.71;89.88
25869;BME280;13688;53.154;18.136;2023-02-19T02:54:28;100387.91;;;1.66;90.20
25869;BME280;13688;53.154;18.136;2023-02-19T03:00:06;100373.41;;;1.54;90.42
25869;BME280;13688;53.154;18.136;2023-02-19T03:05:32;100377.22;;;1.49;90.72
25869;BME280;13688;53.154;18.136;2023-02-19T03:11:06;100376.52;;;1.45;90.89
25869;BME280;13688;53.154;18.136;2023-02-19T03:16:48;100364.55;;;1.36;90.99
25869;BME280;13688;53.154;18.136;2023-02-19T03:22:34;100365.67;;;1.31;91.12
25869;BME280;13688;53.154;18.136;2023-02-19T03:27:59;100358.66;;;1.30;91.25
25869;BME280;13688;53.154;18.136;2023-02-19T03:33:27;100362.42;;;1.24;91.29
25869;BME280;13688;53.154;18.136;2023-02-19T03:38:58;100360.00;;;1.20;91.50
25869;BME280;13688;53.154;18.136;2023-02-19T03:45:01;100367.09;;;1.19;91.97
25869;BME280;13688;53.154;18.136;2023-02-19T03:50:13;100360.86;;;1.20;92.56
25869;BME280;13688;53.154;18.136;2023-02-19T03:56:06;100357.54;;;1.15;93.18
25869;BME280;13688;53.154;18.136;2023-02-19T04:01:40;100356.05;;;1.09;93.81
25869;BME280;13688;53.154;18.136;2023-02-19T04:07:03;100354.33;;;1.08;94.42
25869;BME280;13688;53.154;18.136;2023-02-19T04:12:27;100355.27;;;1.07;94.85
25869;BME280;13688;53.154;18.136;2023-02-19T04:18:02;100351.80;;;1.05;94.95
25869;BME280;13688;53.154;18.136;2023-02-19T04:23:32;100344.71;;;1.06;94.91
25869;BME280;13688;53.154;18.136;2023-02-19T04:28:55;100350.23;;;1.01;94.79
25869;BME280;13688;53.154;18.136;2023-02-19T04:34:17;100344.94;;;1.01;94.71
25869;BME280;13688;53.154;18.136;2023-02-19T04:39:40;100355.52;;;1.01;94.49
25869;BME280;13688;53.154;18.136;2023-02-19T04:45:02;100347.51;;;1.03;94.03
25869;BME280;13688;53.154;18.136;2023-02-19T04:50:25;100352.73;;;1.04;93.49
25869;BME280;13688;53.154;18.136;2023-02-19T04:55:48;100356.38;;;1.02;93.00
25869;BME280;13688;53.154;18.136;2023-02-19T05:01:11;100360.89;;;1.00;92.70
25869;BME280;13688;53.154;18.136;2023-02-19T05:06:33;100366.97;;;1.02;92.52
25869;BME280;13688;53.154;18.136;2023-02-19T05:11:56;100372.98;;;1.05;92.33
25869;BME280;13688;53.154;18.136;2023-02-19T05:17:19;100376.44;;;1.07;92.11
25869;BME280;13688;53.154;18.136;2023-02-19T05:22:41;100368.54;;;1.06;91.83
25869;BME280;13688;53.154;18.136;2023-02-19T05:28:03;100362.46;;;1.04;91.65
25869;BME280;13688;53.154;18.136;2023-02-19T05:33:30;100371.41;;;1.01;91.53
25869;BME280;13688;53.154;18.136;2023-02-19T05:38:54;100371.48;;;1.00;91.55
25869;BME280;13688;53.154;18.136;2023-02-19T05:44:17;100376.09;;;0.95;91.68
25869;BME280;13688;53.154;18.136;2023-02-19T05:49:40;100378.81;;;0.93;91.93
25869;BME280;13688;53.154;18.136;2023-02-19T05:55:03;100382.39;;;0.92;92.33
25869;BME280;13688;53.154;18.136;2023-02-19T06:00:26;100372.66;;;0.93;92.71
25869;BME280;13688;53.154;18.136;2023-02-19T06:05:48;100391.27;;;0.91;93.05
25869;BME280;13688;53.154;18.136;2023-02-19T06:11:10;100399.92;;;0.95;93.37
25869;BME280;13688;53.154;18.136;2023-02-19T06:16:33;100390.16;;;0.97;93.57
25869;BME280;13688;53.154;18.136;2023-02-19T06:21:55;100418.12;;;1.02;93.59
25869;BME280;13688;53.154;18.136;2023-02-19T06:27:17;100404.75;;;1.05;93.38
25869;BME280;13688;53.154;18.136;2023-02-19T06:32:40;100408.14;;;1.09;92.94
25869;BME280;13688;53.154;18.136;2023-02-19T06:38:02;100406.35;;;1.09;92.42
25869;BME280;13688;53.154;18.136;2023-02-19T06:43:25;100409.07;;;1.08;91.99
25869;BME280;13688;53.154;18.136;2023-02-19T06:48:48;100393.27;;;1.06;91.75
25869;BME280;13688;53.154;18.136;2023-02-19T06:54:11;100414.48;;;1.05;91.62
25869;BME280;13688;53.154;18.136;2023-02-19T06:59:34;100422.31;;;1.08;91.63
25869;BME280;13688;53.154;18.136;2023-02-19T07:04:57;100426.46;;;1.13;91.71
25869;BME280;13688;53.154;18.136;2023-02-19T07:10:19;100429.89;;;1.15;91.67
25869;BME280;13688;53.154;18.136;2023-02-19T07:15:41;100426.20;;;1.20;91.60
25869;BME280;13688;53.154;18.136;2023-02-19T07:21:09;100435.65;;;1.25;91.53
25869;BME280;13688;53.154;18.136;2023-02-19T07:26:34;100435.25;;;1.34;91.38
25869;BME280;13688;53.154;18.136;2023-02-19T07:31:59;100446.66;;;1.36;91.07
25869;BME280;13688;53.154;18.136;2023-02-19T07:37:23;100442.94;;;1.40;90.74
25869;BME280;13688;53.154;18.136;2023-02-19T07:42:46;100446.97;;;1.49;90.39
25869;BME280;13688;53.154;18.136;2023-02-19T07:48:10;100459.13;;;1.53;89.99
25869;BME280;13688;53.154;18.136;2023-02-19T07:53:35;100457.30;;;1.55;89.46
25869;BME280;13688;53.154;18.136;2023-02-19T07:59:03;100460.59;;;1.60;88.96
25869;BME280;13688;53.154;18.136;2023-02-19T08:04:29;100475.14;;;1.70;88.40
25869;BME280;13688;53.154;18.136;2023-02-19T08:09:55;100473.67;;;1.84;87.77
25869;BME280;13688;53.154;18.136;2023-02-19T08:15:38;100483.83;;;1.93;86.87
25869;BME280;13688;53.154;18.136;2023-02-19T08:21:05;100489.45;;;2.06;85.73
25869;BME280;13688;53.154;18.136;2023-02-19T08:26:29;100495.81;;;2.20;84.72
25869;BME280;13688;53.154;18.136;2023-02-19T08:31:52;100499.75;;;2.30;83.69
25869;BME280;13688;53.154;18.136;2023-02-19T08:37:14;100511.65;;;2.41;82.60
25869;BME280;13688;53.154;18.136;2023-02-19T08:42:37;100524.20;;;2.56;81.53
25869;BME280;13688;53.154;18.136;2023-02-19T08:48:02;100512.13;;;2.68;80.35
25869;BME280;13688;53.154;18.136;2023-02-19T08:53:29;100514.66;;;2.71;79.00
25869;BME280;13688;53.154;18.136;2023-02-19T08:58:54;100529.13;;;2.82;77.98
25869;BME280;13688;53.154;18.136;2023-02-19T09:04:17;100526.71;;;2.95;77.01
25869;BME280;13688;53.154;18.136;2023-02-19T09:09:43;100532.75;;;3.16;76.19
25869;BME280;13688;53.154;18.136;2023-02-19T09:15:06;100533.92;;;3.28;75.04
25869;BME280;13688;53.154;18.136;2023-02-19T09:20:29;100554.27;;;3.29;74.31
25869;BME280;13688;53.154;18.136;2023-02-19T09:25:58;100562.47;;;3.41;73.99
25869;BME280;13688;53.154;18.136;2023-02-19T09:31:22;100551.38;;;3.51;73.00
25869;BME280;13688;53.154;18.136;2023-02-19T09:36:47;100570.15;;;3.48;71.88
25869;BME280;13688;53.154;18.136;2023-02-19T09:42:21;100564.11;;;3.44;71.23
25869;BME280;13688;53.154;18.136;2023-02-19T09:47:41;100564.97;;;3.62;70.72
25869;BME280;13688;53.154;18.136;2023-02-19T09:53:13;100587.34;;;3.58;69.64
25869;BME280;13688;53.154;18.136;2023-02-19T09:58:54;100573.33;;;3.71;68.96
25869;BME280;13688;53.154;18.136;2023-02-19T10:04:18;100591.16;;;3.87;68.53
25869;BME280;13688;53.154;18.136;2023-02-19T10:09:42;100586.59;;;4.06;67.19
25869;BME280;13688;53.154;18.136;2023-02-19T10:15:33;100602.66;;;3.53;67.22
25869;BME280;13688;53.154;18.136;2023-02-19T10:21:32;100611.25;;;3.40;68.88
25869;BME280;13688;53.154;18.136;2023-02-19T10:26:33;100600.90;;;4.03;68.30
25869;BME280;13688;53.154;18.136;2023-02-19T10:37:43;100629.42;;;4.83;61.96
25869;BME280;13688;53.154;18.136;2023-02-19T10:43:08;100620.12;;;4.91;61.62
25869;BME280;13688;53.154;18.136;2023-02-19T10:48:43;100651.69;;;5.14;57.52
25869;BME280;13688;53.154;18.136;2023-02-19T10:59:50;100634.01;;;4.15;59.36
25869;BME280;13688;53.154;18.136;2023-02-19T11:05:19;100637.66;;;4.79;60.59
25869;BME280;13688;53.154;18.136;2023-02-19T11:10:46;100624.39;;;4.62;58.89
25869;BME280;13688;53.154;18.136;2023-02-19T11:16:10;100638.51;;;4.79;57.25
25869;BME280;13688;53.154;18.136;2023-02-19T11:21:34;100656.45;;;4.27;55.12
25869;BME280;13688;53.154;18.136;2023-02-19T11:26:57;100650.97;;;4.13;56.51
25869;BME280;13688;53.154;18.136;2023-02-19T11:32:34;100649.15;;;4.30;56.85
25869;BME280;13688;53.154;18.136;2023-02-19T11:38:04;100677.66;;;3.94;55.07
25869;BME280;13688;53.154;18.136;2023-02-19T11:43:38;100668.98;;;3.73;53.97
25869;BME280;13688;53.154;18.136;2023-02-19T12:13:34;100686.59;;;4.60;50.09
25869;BME280;13688;53.154;18.136;2023-02-19T12:19:26;100691.99;;;5.08;46.73
25869;BME280;13688;53.154;18.136;2023-02-19T12:36:39;100692.96;;;5.84;42.06
25869;BME280;13688;53.154;18.136;2023-02-19T12:54:31;100694.77;;;7.01;40.64
25869;BME280;13688;53.154;18.136;2023-02-19T12:59:51;100718.14;;;6.54;41.43
25869;BME280;13688;53.154;18.136;2023-02-19T13:05:49;100729.65;;;5.81;44.44
25869;BME280;13688;53.154;18.136;2023-02-19T13:11:31;100753.84;;;5.62;44.35
25869;BME280;13688;53.154;18.136;2023-02-19T13:17:02;100757.34;;;6.10;43.31
25869;BME280;13688;53.154;18.136;2023-02-19T13:41:17;100771.56;;;5.31;43.76
25869;BME280;13688;53.154;18.136;2023-02-19T13:46:48;100747.94;;;6.18;42.58
25869;BME280;13688;53.154;18.136;2023-02-19T13:57:52;100749.33;;;6.54;41.84
25869;BME280;13688;53.154;18.136;2023-02-19T14:14:56;100786.92;;;6.51;40.70
25869;BME280;13688;53.154;18.136;2023-02-19T14:20:43;100805.34;;;6.25;39.00
25869;BME280;13688;53.154;18.136;2023-02-19T14:26:06;100798.89;;;6.74;38.50
25869;BME280;13688;53.154;18.136;2023-02-19T14:31:35;100817.79;;;6.71;38.84
25869;BME280;13688;53.154;18.136;2023-02-19T14:36:54;100814.68;;;6.18;38.98
25869;BME280;13688;53.154;18.136;2023-02-19T14:42:21;100844.41;;;6.72;39.80
25869;BME280;13688;53.154;18.136;2023-02-19T14:47:44;100833.33;;;5.06;40.86
25869;BME280;13688;53.154;18.136;2023-02-19T14:53:12;100861.16;;;5.83;41.64
25869;BME280;13688;53.154;18.136;2023-02-19T14:58:35;100866.27;;;6.03;39.96
25869;BME280;13688;53.154;18.136;2023-02-19T15:03:59;100853.73;;;5.88;39.39
25869;BME280;13688;53.154;18.136;2023-02-19T15:09:23;100853.96;;;6.00;39.93
25869;BME280;13688;53.154;18.136;2023-02-19T15:14:46;100864.75;;;5.66;40.30
25869;BME280;13688;53.154;18.136;2023-02-19T15:20:15;100868.21;;;5.84;41.13
25869;BME280;13688;53.154;18.136;2023-02-19T15:25:41;100876.28;;;5.66;41.07
25869;BME280;13688;53.154;18.136;2023-02-19T15:31:09;100885.13;;;5.01;42.28
25869;BME280;13688;53.154;18.136;2023-02-19T15:36:32;100904.89;;;4.79;42.75
25869;BME280;13688;53.154;18.136;2023-02-19T15:42:00;100913.27;;;4.54;43.31
25869;BME280;13688;53.154;18.136;2023-02-19T15:53:18;100904.36;;;4.00;44.28
25869;BME280;13688;53.154;18.136;2023-02-19T15:58:55;100936.16;;;3.45;45.77
25869;BME280;13688;53.154;18.136;2023-02-19T16:04:20;100935.64;;;3.17;47.19
25869;BME280;13688;53.154;18.136;2023-02-19T16:09:43;100944.94;;;2.86;48.54
25869;BME280;13688;53.154;18.136;2023-02-19T16:15:12;100953.02;;;2.63;50.14
25869;BME280;13688;53.154;18.136;2023-02-19T16:20:37;100962.14;;;2.56;50.97
25869;BME280;13688;53.154;18.136;2023-02-19T16:26:08;100954.11;;;2.57;50.18
25869;BME280;13688;53.154;18.136;2023-02-19T16:31:31;100973.20;;;2.45;50.01
25869;BME280;13688;53.154;18.136;2023-02-19T16:36:53;100972.83;;;2.33;50.24
25869;BME280;13688;53.154;18.136;2023-02-19T16:42:17;101002.31;;;2.25;51.00
25869;BME280;13688;53.154;18.136;2023-02-19T16:47:41;101004.39;;;2.17;51.55
25869;BME280;13688;53.154;18.136;2023-02-19T16:53:05;101026.77;;;2.10;51.70
25869;BME280;13688;53.154;18.136;2023-02-19T16:58:34;101048.17;;;2.05;51.89
25869;BME280;13688;53.154;18.136;2023-02-19T17:04:08;101052.77;;;2.00;52.08
25869;BME280;13688;53.154;18.136;2023-02-19T17:09:28;101063.09;;;1.84;52.95
25869;BME280;13688;53.154;18.136;2023-02-19T17:14:50;101062.64;;;1.71;54.14
25869;BME280;13688;53.154;18.136;2023-02-19T17:20:24;101051.23;;;1.69;55.21
25869;BME280;13688;53.154;18.136;2023-02-19T17:25:47;101050.37;;;1.69;55.64
25869;BME280;13688;53.154;18.136;2023-02-19T17:31:10;101056.31;;;1.51;56.44
25869;BME280;13688;53.154;18.136;2023-02-19T17:36:34;101061.13;;;1.39;57.01
25869;BME280;13688;53.154;18.136;2023-02-19T17:41:56;101065.70;;;1.34;57.58
25869;BME280;13688;53.154;18.136;2023-02-19T17:47:20;101073.16;;;1.23;58.01
25869;BME280;13688;53.154;18.136;2023-02-19T17:52:42;101075.11;;;1.18;58.47
25869;BME280;13688;53.154;18.136;2023-02-19T17:58:04;101077.84;;;1.15;58.76
25869;BME280;13688;53.154;18.136;2023-02-19T18:03:27;101093.56;;;0.93;59.27
25869;BME280;13688;53.154;18.136;2023-02-19T18:08:54;101097.48;;;0.81;59.99
25869;BME280;13688;53.154;18.136;2023-02-19T18:14:17;101100.75;;;0.62;60.92
25869;BME280;13688;53.154;18.136;2023-02-19T18:19:41;101103.44;;;0.60;61.66
25869;BME280;13688;53.154;18.136;2023-02-19T18:25:04;101113.44;;;0.50;62.32
25869;BME280;13688;53.154;18.136;2023-02-19T18:30:27;101130.56;;;0.37;63.15
25869;BME280;13688;53.154;18.136;2023-02-19T18:35:50;101134.39;;;0.27;63.97
25869;BME280;13688;53.154;18.136;2023-02-19T18:41:14;101125.90;;;0.16;64.64
25869;BME280;13688;53.154;18.136;2023-02-19T18:46:36;101132.66;;;0.26;65.32
25869;BME280;13688;53.154;18.136;2023-02-19T18:51:58;101109.07;;;0.18;65.89
25869;BME280;13688;53.154;18.136;2023-02-19T18:57:22;101120.00;;;0.06;66.48
25869;BME280;13688;53.154;18.136;2023-02-19T19:02:45;101122.13;;;-0.07;67.21
25869;BME280;13688;53.154;18.136;2023-02-19T19:08:14;101131.03;;;-0.11;68.05
25869;BME280;13688;53.154;18.136;2023-02-19T19:13:38;101123.05;;;-0.08;68.67
25869;BME280;13688;53.154;18.136;2023-02-19T19:19:01;101132.81;;;-0.11;69.13
25869;BME280;13688;53.154;18.136;2023-02-19T19:24:24;101133.24;;;-0.26;69.62
25869;BME280;13688;53.154;18.136;2023-02-19T19:29:46;101120.94;;;-0.27;70.38
25869;BME280;13688;53.154;18.136;2023-02-19T19:35:09;101121.00;;;-0.31;70.93
25869;BME280;13688;53.154;18.136;2023-02-19T19:40:33;101129.80;;;-0.30;71.22
25869;BME280;13688;53.154;18.136;2023-02-19T19:45:58;101126.91;;;-0.21;71.27
25869;BME280;13688;53.154;18.136;2023-02-19T19:51:31;101130.17;;;-0.11;71.13
25869;BME280;13688;53.154;18.136;2023-02-19T19:56:55;101113.49;;;-0.13;70.72
25869;BME280;13688;53.154;18.136;2023-02-19T20:02:20;101128.73;;;-0.23;70.69
25869;BME280;13688;53.154;18.136;2023-02-19T20:07:45;101121.86;;;-0.28;70.86
25869;BME280;13688;53.154;18.136;2023-02-19T20:13:09;101122.42;;;-0.17;70.72
25869;BME280;13688;53.154;18.136;2023-02-19T20:18:35;101133.81;;;-0.15;70.32
25869;BME280;13688;53.154;18.136;2023-02-19T20:23:58;101116.03;;;-0.09;69.97
25869;BME280;13688;53.154;18.136;2023-02-19T20:29:22;101116.66;;;-0.01;69.72
25869;BME280;13688;53.154;18.136;2023-02-19T20:34:46;101101.55;;;0.05;69.43
25869;BME280;13688;53.154;18.136;2023-02-19T20:40:10;101123.66;;;0.02;69.42
25869;BME280;13688;53.154;18.136;2023-02-19T20:45:36;101123.61;;;0.04;69.66
25869;BME280;13688;53.154;18.136;2023-02-19T20:51:01;101123.66;;;0.02;69.89
25869;BME280;13688;53.154;18.136;2023-02-19T20:56:25;101125.44;;;0.02;70.14
25869;BME280;13688;53.154;18.136;2023-02-19T21:01:49;101129.01;;;-0.01;70.39
25869;BME280;13688;53.154;18.136;2023-02-19T21:07:15;101127.42;;;-0.07;70.73
25869;BME280;13688;53.154;18.136;2023-02-19T21:12:39;101127.98;;;0.05;71.05
25869;BME280;13688;53.154;18.136;2023-02-19T21:18:05;101139.33;;;0.08;70.99
25869;BME280;13688;53.154;18.136;2023-02-19T21:23:30;101138.70;;;0.00;71.05
25869;BME280;13688;53.154;18.136;2023-02-19T21:28:58;101141.11;;;0.08;71.27
25869;BME280;13688;53.154;18.136;2023-02-19T21:34:25;101152.18;;;0.22;71.04
25869;BME280;13688;53.154;18.136;2023-02-19T21:39:50;101153.20;;;0.16;70.71
25869;BME280;13688;53.154;18.136;2023-02-19T21:45:15;101147.92;;;0.16;70.58
25869;BME280;13688;53.154;18.136;2023-02-19T21:50:39;101150.61;;;0.15;70.55
25869;BME280;13688;53.154;18.136;2023-02-19T21:56:04;101159.55;;;0.11;70.56
25869;BME280;13688;53.154;18.136;2023-02-19T22:01:35;101161.33;;;0.10;70.59
25869;BME280;13688;53.154;18.136;2023-02-19T22:07:01;101154.28;;;0.09;70.68
25869;BME280;13688;53.154;18.136;2023-02-19T22:12:25;101140.28;;;0.06;70.66
25869;BME280;13688;53.154;18.136;2023-02-19T22:17:49;101141.20;;;0.05;70.59
25869;BME280;13688;53.154;18.136;2023-02-19T22:23:14;101140.95;;;0.14;70.53
25869;BME280;13688;53.154;18.136;2023-02-19T22:28:38;101136.78;;;0.05;70.38
25869;BME280;13688;53.154;18.136;2023-02-19T22:34:03;101131.65;;;-0.01;70.60
25869;BME280;13688;53.154;18.136;2023-02-19T22:39:28;101130.88;;;-0.05;70.87
25869;BME280;13688;53.154;18.136;2023-02-19T22:44:53;101124.68;;;-0.04;71.07
25869;BME280;13688;53.154;18.136;2023-02-19T22:50:23;101132.81;;;-0.11;71.30
25869;BME280;13688;53.154;18.136;2023-02-19T22:55:47;101122.19;;;-0.10;71.66
25869;BME280;13688;53.154;18.136;2023-02-19T23:01:12;101137.17;;;-0.09;71.91
25869;BME280;13688;53.154;18.136;2023-02-19T23:06:39;101140.02;;;-0.16;72.08
25869;BME280;13688;53.154;18.136;2023-02-19T23:12:09;101149.53;;;-0.11;72.32
25869;BME280;13688;53.154;18.136;2023-02-19T23:17:33;101142.46;;;-0.09;72.26
25869;BME280;13688;53.154;18.136;2023-02-19T23:22:57;101149.43;;;-0.06;72.15
25869;BME280;13688;53.154;18.136;2023-02-19T23:28:20;101147.90;;;-0.15;72.15
25869;BME280;13688;53.154;18.136;2023-02-19T23:33:45;101138.28;;;-0.17;72.45
25869;BME280;13688;53.154;18.136;2023-02-19T23:39:10;101137.33;;;-0.15;72.57
25869;BME280;13688;53.154;18.136;2023-02-19T23:44:36;101133.77;;;-0.14;72.58
25869;BME280;13688;53.154;18.136;2023-02-19T23:50:02;101140.92;;;-0.17;72.59
25869;BME280;13688;53.154;18.136;2023-02-19T23:55:26;101133.86;;;-0.17;72.61
